createdAt,value
2023-05-04T00:00:10.673Z,100451.66
2023-05-04T00:02:37.670Z,100435.22
2023-05-04T00:05:06.363Z,100454.66
2023-05-04T00:07:33.293Z,100459.47
2023-05-04T00:10:00.285Z,100451.66
2023-05-04T00:12:27.503Z,100452.34
2023-05-04T00:14:54.515Z,100451.38
2023-05-04T00:17:21.304Z,100457.03
2023-05-04T00:19:48.163Z,100458.19
2023-05-04T00:22:15.070Z,100431.09
2023-05-04T00:24:44.125Z,100454.72
2023-05-04T00:27:11.130Z,100459.56
2023-05-04T00:29:37.997Z,100457.06
2023-05-04T00:32:05.187Z,100456.22
2023-05-04T00:34:34.385Z,100439.28
2023-05-04T00:37:01.393Z,100441.13
2023-05-04T00:39:28.198Z,100431.66
2023-05-04T00:41:54.990Z,100462.06
2023-05-04T00:44:24.192Z,100444.47
2023-05-04T00:46:52.661Z,100460.25
2023-05-04T00:49:19.690Z,100447.28
2023-05-04T00:51:47.850Z,100451.09
2023-05-04T00:54:16.950Z,100461.75
2023-05-04T00:56:43.784Z,100459.56
2023-05-04T00:59:11.059Z,100476.34
2023-05-04T01:01:38.002Z,100362.97
2023-05-04T01:04:05.039Z,100465.41
2023-05-04T01:06:37.929Z,100477.38
2023-05-04T01:09:22.858Z,100438.81
2023-05-04T01:12:08.428Z,100461.72
2023-05-04T01:14:35.475Z,100450.06
2023-05-04T01:17:04.522Z,100454.06
2023-05-04T01:19:31.785Z,100465.88
2023-05-04T01:21:58.595Z,100451.59
2023-05-04T01:24:26.805Z,100418.19
2023-05-04T01:27:04.124Z,100465.06
2023-05-04T01:30:05.754Z,100472.38
2023-05-04T01:32:32.974Z,100459.22
2023-05-04T01:34:59.859Z,100470.69
2023-05-04T01:37:26.676Z,100476.03
2023-05-04T01:39:53.788Z,100457.78
2023-05-04T01:42:20.622Z,100457.94
2023-05-04T01:44:47.342Z,100467.88
2023-05-04T01:47:14.199Z,100444.47
2023-05-04T01:49:40.946Z,100447.66
2023-05-04T01:52:08.076Z,100451.28
2023-05-04T01:54:34.929Z,100454.13
2023-05-04T01:57:02.343Z,100473.56
2023-05-04T01:59:29.074Z,100490.03
2023-05-04T02:01:56.155Z,100478.88
2023-05-04T02:04:22.973Z,100476.25
2023-05-04T02:06:49.730Z,100466.63
2023-05-04T02:09:16.840Z,100492.03
2023-05-04T02:11:43.758Z,100481.56
2023-05-04T02:14:10.571Z,100486.56
2023-05-04T02:16:37.595Z,100494.53
2023-05-04T02:19:04.454Z,100483.91
2023-05-04T02:21:31.408Z,100410.28
2023-05-04T02:23:59.415Z,100495.72
2023-05-04T02:26:26.203Z,100466.97
2023-05-04T02:28:52.956Z,100463.63
2023-05-04T02:31:19.900Z,100461.63
2023-05-04T02:33:46.836Z,100489.06
2023-05-04T02:36:13.643Z,100487.56
2023-05-04T02:38:40.521Z,100474.09
2023-05-04T02:41:07.360Z,100484.06
2023-05-04T02:43:34.057Z,100483.38
2023-05-04T02:46:00.991Z,100451.19
2023-05-04T02:48:27.879Z,100483.22
2023-05-04T02:50:54.713Z,100493.19
2023-05-04T02:53:21.621Z,100469.13
2023-05-04T02:55:48.541Z,100498.84
2023-05-04T02:58:15.523Z,100466.47
2023-05-04T03:00:42.500Z,100507.81
2023-05-04T03:03:09.267Z,100499.69
2023-05-04T03:05:36.096Z,100509.00
2023-05-04T03:08:02.906Z,100500.50
2023-05-04T03:10:29.684Z,100462.44
2023-05-04T03:12:56.734Z,100499.69
2023-05-04T03:15:23.526Z,100502.16
2023-05-04T03:17:50.398Z,100495.53
2023-05-04T03:20:17.600Z,100489.22
2023-05-04T03:22:44.363Z,100505.50
2023-05-04T03:25:11.147Z,100505.00
2023-05-04T03:27:38.094Z,100504.50
2023-05-04T03:30:06.374Z,100496.84
2023-05-04T03:32:33.414Z,100485.72
2023-05-04T03:35:01.983Z,100517.66
2023-05-04T03:37:30.148Z,100502.69
2023-05-04T03:39:57.002Z,100450.34
2023-05-04T03:42:23.875Z,100509.50
2023-05-04T03:44:51.134Z,100481.75
2023-05-04T03:47:17.913Z,100489.56
2023-05-04T03:49:45.001Z,100491.91
2023-05-04T03:52:11.870Z,100494.88
2023-05-04T03:54:38.659Z,100498.03
2023-05-04T03:57:05.626Z,100482.09
2023-05-04T03:59:32.341Z,100504.88
2023-05-04T04:02:00.156Z,100495.56
2023-05-04T04:04:27.640Z,100491.91
2023-05-04T04:06:54.423Z,100486.25
2023-05-04T04:09:21.466Z,100479.41
2023-05-04T04:11:48.580Z,100458.78
2023-05-04T04:14:15.398Z,100491.50
2023-05-04T04:16:42.193Z,100500.94
2023-05-04T04:19:09.785Z,100484.81
2023-05-04T04:21:36.533Z,100492.97
2023-05-04T04:24:03.356Z,100480.66
2023-05-04T04:26:30.403Z,100487.81
2023-05-04T04:28:57.851Z,100497.63
2023-05-04T04:31:24.629Z,100476.16
2023-05-04T04:33:51.595Z,100403.00
2023-05-04T04:36:18.588Z,100484.16
2023-05-04T04:38:45.398Z,100484.63
2023-05-04T04:41:12.392Z,100472.50
2023-05-04T04:43:39.454Z,100499.59
2023-05-04T04:46:06.258Z,100477.16
2023-05-04T04:48:33.209Z,100418.91
2023-05-04T04:51:00.252Z,100470.81
2023-05-04T04:53:27.158Z,100385.47
2023-05-04T04:55:54.914Z,100507.06
2023-05-04T04:58:22.135Z,100500.44
2023-05-04T05:00:49.082Z,100452.31
2023-05-04T05:03:16.308Z,100472.81
2023-05-04T05:05:43.146Z,100462.31
2023-05-04T05:08:09.889Z,100513.19
2023-05-04T05:10:36.798Z,100493.56
2023-05-04T05:13:03.638Z,100516.31
2023-05-04T05:15:30.637Z,100483.56
2023-05-04T05:17:57.801Z,100499.22
2023-05-04T05:20:25.094Z,100526.97
2023-05-04T05:22:52.234Z,100486.94
2023-05-04T05:25:19.510Z,100513.03
2023-05-04T05:27:46.420Z,100481.91
2023-05-04T05:30:14.033Z,100522.53
2023-05-04T05:32:40.880Z,100525.34
2023-05-04T05:35:08.440Z,100492.25
2023-05-04T05:37:35.380Z,100510.69
2023-05-04T05:40:02.616Z,100525.84
2023-05-04T05:42:30.486Z,100527.50
2023-05-04T05:44:57.321Z,100491.75
2023-05-04T05:47:24.314Z,100527.19
2023-05-04T05:49:51.087Z,100499.69
2023-05-04T05:52:18.477Z,100530.84
2023-05-04T05:54:45.527Z,100537.00
2023-05-04T05:57:12.343Z,100547.66
2023-05-04T05:59:39.201Z,100534.34
2023-05-04T06:02:08.410Z,100515.84
2023-05-04T06:04:35.287Z,100559.78
2023-05-04T06:07:02.089Z,100558.94
2023-05-04T06:09:28.934Z,100542.28
2023-05-04T06:11:55.823Z,100568.59
2023-05-04T06:14:22.672Z,100568.09
2023-05-04T06:16:49.552Z,100571.78
2023-05-04T06:19:16.459Z,100566.13
2023-05-04T06:21:43.232Z,100564.66
2023-05-04T06:24:10.177Z,100573.00
2023-05-04T06:26:36.931Z,100565.00
2023-05-04T06:29:03.732Z,100571.84
2023-05-04T06:31:30.653Z,100567.53
2023-05-04T06:33:57.914Z,100571.19
2023-05-04T06:36:26.255Z,100578.16
2023-05-04T06:38:53.139Z,100576.53
2023-05-04T06:41:20.040Z,100583.81
2023-05-04T06:43:46.824Z,100547.91
2023-05-04T06:46:13.831Z,100588.34
2023-05-04T06:48:41.445Z,100575.03
2023-05-04T06:51:08.288Z,100591.84
2023-05-04T06:53:36.038Z,100569.88
2023-05-04T06:56:02.884Z,100605.97
2023-05-04T06:58:29.623Z,100560.72
2023-05-04T07:00:56.943Z,100606.66
2023-05-04T07:03:23.787Z,100611.66
2023-05-04T07:05:51.275Z,100588.34
2023-05-04T07:08:19.949Z,100546.25
2023-05-04T07:10:46.875Z,100587.34
2023-05-04T07:13:14.373Z,100559.06
2023-05-04T07:15:41.312Z,100610.97
2023-05-04T07:18:08.240Z,100615.81
2023-05-04T07:20:35.073Z,100622.78
2023-05-04T07:23:02.002Z,100613.47
2023-05-04T07:25:28.815Z,100611.47
2023-05-04T07:27:55.627Z,100613.81
2023-05-04T07:30:22.649Z,100626.13
2023-05-04T07:32:49.440Z,100631.44
2023-05-04T07:35:16.226Z,100634.91
2023-05-04T07:37:43.021Z,100637.56
2023-05-04T07:40:10.566Z,100638.56
2023-05-04T07:42:37.375Z,100629.41
2023-05-04T07:45:04.831Z,100606.13
2023-05-04T07:47:31.675Z,100638.25
2023-05-04T07:49:59.045Z,100651.22
2023-05-04T07:52:26.109Z,100645.25
2023-05-04T07:54:53.689Z,100644.22
2023-05-04T07:57:21.048Z,100597.78
2023-05-04T07:59:47.911Z,100630.97
2023-05-04T08:02:15.394Z,100620.53
2023-05-04T08:04:42.228Z,100655.75
2023-05-04T08:07:09.087Z,100655.97
2023-05-04T08:09:36.034Z,100599.69
2023-05-04T08:12:04.498Z,100657.88
2023-05-04T08:14:31.780Z,100661.44
2023-05-04T08:16:58.551Z,100666.19
2023-05-04T08:19:25.404Z,100672.00
2023-05-04T08:21:53.210Z,100633.41
2023-05-04T08:24:20.064Z,100675.78
2023-05-04T08:26:55.631Z,100670.88
2023-05-04T08:29:32.022Z,100674.53
2023-05-04T08:31:58.967Z,100677.44
2023-05-04T08:34:27.133Z,100682.28
2023-05-04T08:36:54.065Z,100679.44
2023-05-04T08:39:21.291Z,100682.97
2023-05-04T08:41:48.063Z,100655.19
2023-05-04T08:44:16.124Z,100653.59
2023-05-04T08:46:43.550Z,100669.50
2023-05-04T08:49:13.164Z,100677.47
2023-05-04T08:51:40.150Z,100671.91
2023-05-04T08:54:09.689Z,100677.50
2023-05-04T08:56:36.721Z,100611.34
2023-05-04T08:59:04.116Z,100694.59
2023-05-04T09:01:30.927Z,100703.81
2023-05-04T09:03:57.772Z,100668.53
2023-05-04T09:06:24.766Z,100667.34
2023-05-04T09:08:51.644Z,100701.78
2023-05-04T09:11:18.586Z,100695.66
2023-05-04T09:13:45.396Z,100692.19
2023-05-04T09:16:14.607Z,100692.56
2023-05-04T09:18:42.539Z,100703.81
2023-05-04T09:21:09.637Z,100695.25
2023-05-04T09:23:49.359Z,100677.47
2023-05-04T09:26:26.341Z,100702.59
2023-05-04T09:28:53.080Z,100702.69
2023-05-04T09:31:20.112Z,100709.75
2023-05-04T09:33:46.964Z,100716.81
2023-05-04T09:36:18.567Z,100699.75
2023-05-04T09:38:45.396Z,100715.22
2023-05-04T09:41:12.264Z,100712.94
2023-05-04T09:43:43.822Z,100680.16
2023-05-04T09:46:20.076Z,100700.56
2023-05-04T09:48:56.985Z,100719.19
2023-05-04T09:51:25.189Z,100716.91
2023-05-04T09:53:52.698Z,100739.50
2023-05-04T09:56:42.362Z,100726.13
2023-05-04T09:59:10.173Z,100722.31
2023-05-04T10:01:37.106Z,100734.22
2023-05-04T10:04:04.519Z,100714.50
2023-05-04T10:06:31.439Z,100730.78
2023-05-04T10:08:59.205Z,100740.44
2023-05-04T10:11:26.429Z,100718.25
2023-05-04T10:13:54.906Z,100752.13
2023-05-04T10:16:41.259Z,100753.31
2023-05-04T10:19:27.475Z,100761.81
2023-05-04T10:22:19.115Z,100736.22
2023-05-04T10:25:01.566Z,100752.00
2023-05-04T10:27:37.618Z,100753.50
2023-05-04T10:30:05.294Z,100747.34
2023-05-04T10:32:38.832Z,100751.19
2023-05-04T10:35:07.119Z,100767.41
2023-05-04T10:37:34.166Z,100765.88
2023-05-04T10:40:01.179Z,100762.72
2023-05-04T10:42:28.836Z,100731.91
2023-05-04T10:44:56.535Z,100750.88
2023-05-04T10:47:33.854Z,100772.00
2023-05-04T10:50:11.684Z,100771.94
2023-05-04T10:52:53.897Z,100757.06
2023-05-04T10:55:21.618Z,100756.66
2023-05-04T10:57:55.932Z,100777.63
2023-05-04T11:00:22.896Z,100779.50
2023-05-04T11:02:49.894Z,100760.78
2023-05-04T11:05:20.490Z,100775.97
2023-05-04T11:07:50.997Z,100754.69
2023-05-04T11:10:24.796Z,100759.13
2023-05-04T11:12:51.800Z,100775.84
2023-05-04T11:15:19.196Z,100779.28
2023-05-04T11:17:50.071Z,100785.31
2023-05-04T11:20:24.260Z,100775.44
2023-05-04T11:22:51.485Z,100744.63
2023-05-04T11:25:18.554Z,100776.03
2023-05-04T11:27:48.908Z,100771.03
2023-05-04T11:30:18.684Z,100764.69
2023-05-04T11:32:49.681Z,100769.53
2023-05-04T11:35:18.093Z,100756.53
2023-05-04T11:37:45.613Z,100768.00
2023-05-04T11:40:14.145Z,100761.63
2023-05-04T11:42:41.385Z,100757.34
2023-05-04T11:45:19.494Z,100748.19
2023-05-04T11:47:46.659Z,100763.72
2023-05-04T11:50:14.758Z,100719.94
2023-05-04T11:52:41.981Z,100751.41
2023-05-04T11:55:12.780Z,100752.63
2023-05-04T11:57:39.939Z,100765.22
2023-05-04T12:00:08.292Z,100780.88
2023-05-04T12:02:35.213Z,100778.34
2023-05-04T12:05:02.267Z,100751.13
2023-05-04T12:07:29.202Z,100785.81
2023-05-04T12:09:55.957Z,100788.66
2023-05-04T12:12:22.809Z,100720.56
2023-05-04T12:14:52.879Z,100779.44
2023-05-04T12:17:22.864Z,100783.19
2023-05-04T12:19:52.816Z,100779.69
2023-05-04T12:22:29.524Z,100776.66
2023-05-04T12:24:58.367Z,100764.59
2023-05-04T12:27:27.868Z,100777.75
2023-05-04T12:29:55.050Z,100766.88
2023-05-04T12:32:21.956Z,100765.97
2023-05-04T12:34:48.848Z,100769.63
2023-05-04T12:37:15.658Z,100779.13
2023-05-04T12:39:42.699Z,100775.16
2023-05-04T12:42:09.539Z,100780.31
2023-05-04T12:44:36.357Z,100789.56
2023-05-04T12:47:03.378Z,100776.38
2023-05-04T12:49:30.148Z,100780.59
2023-05-04T12:51:58.241Z,100767.75
2023-05-04T12:54:25.119Z,100780.59
2023-05-04T12:56:52.740Z,100778.00
2023-05-04T12:59:19.584Z,100787.59
2023-05-04T13:01:46.615Z,100768.75
2023-05-04T13:04:13.618Z,100798.06
2023-05-04T13:06:40.617Z,100793.75
2023-05-04T13:09:07.579Z,100783.94
2023-05-04T13:11:34.555Z,100791.59
2023-05-04T13:14:01.379Z,100754.69
2023-05-04T13:16:28.497Z,100800.25
2023-05-04T13:18:55.602Z,100799.78
2023-05-04T13:21:22.438Z,100806.56
2023-05-04T13:23:49.502Z,100806.09
2023-05-04T13:26:16.327Z,100797.78
2023-05-04T13:28:43.294Z,100808.06
2023-05-04T13:31:10.596Z,100799.81
2023-05-04T13:33:40.280Z,100762.34
2023-05-04T13:36:07.197Z,100779.78
2023-05-04T13:38:34.166Z,100785.72
2023-05-04T13:41:00.976Z,100795.41
2023-05-04T13:43:28.339Z,100798.38
2023-05-04T13:45:57.258Z,100799.91
2023-05-04T13:48:25.836Z,100798.41
2023-05-04T13:50:53.066Z,100811.00
2023-05-04T13:53:19.978Z,100816.94
2023-05-04T13:55:47.169Z,100805.94
2023-05-04T13:58:13.926Z,100733.44
2023-05-04T14:00:40.907Z,100800.00
2023-05-04T14:03:07.834Z,100799.44
2023-05-04T14:05:35.804Z,100802.97
2023-05-04T14:08:03.166Z,100800.34
2023-05-04T14:10:29.971Z,100807.44
2023-05-04T14:12:56.795Z,100797.50
2023-05-04T14:15:23.903Z,100783.75
2023-05-04T14:17:50.804Z,100787.53
2023-05-04T14:20:18.286Z,100794.75
2023-05-04T14:22:45.284Z,100783.25
2023-05-04T14:25:12.887Z,100784.44
2023-05-04T14:27:39.688Z,100785.63
2023-05-04T14:30:09.669Z,100787.16
2023-05-04T14:32:36.707Z,100766.84
2023-05-04T14:35:08.200Z,100780.13
2023-05-04T14:37:39.340Z,100788.41
2023-05-04T14:40:07.704Z,100748.53
2023-05-04T14:42:35.392Z,100761.09
2023-05-04T14:45:03.690Z,100787.22
2023-05-04T14:47:30.556Z,100777.25
2023-05-04T14:49:57.668Z,100777.25
2023-05-04T14:52:26.128Z,100772.03
2023-05-04T14:54:53.025Z,100786.25
2023-05-04T14:57:19.771Z,100763.50
2023-05-04T14:59:47.107Z,100769.75
2023-05-04T15:02:13.990Z,100757.75
2023-05-04T15:04:40.808Z,100783.84
2023-05-04T15:07:08.811Z,100772.47
2023-05-04T15:09:38.223Z,100770.81
2023-05-04T15:12:04.962Z,100775.31
2023-05-04T15:14:31.999Z,100771.06
2023-05-04T15:16:58.783Z,100765.00
2023-05-04T15:19:25.647Z,100749.22
2023-05-04T15:21:52.915Z,100774.50
2023-05-04T15:24:19.656Z,100764.66
2023-05-04T15:26:46.494Z,100763.94
2023-05-04T15:29:13.774Z,100775.44
2023-05-04T15:31:40.586Z,100768.94
2023-05-04T15:34:07.511Z,100762.31
2023-05-04T15:36:34.473Z,100776.56
2023-05-04T15:39:01.296Z,100762.09
2023-05-04T15:41:28.119Z,100770.63
2023-05-04T15:43:55.429Z,100778.16
2023-05-04T15:46:22.168Z,100752.56
2023-05-04T15:48:49.004Z,100778.03
2023-05-04T15:51:15.864Z,100759.50
2023-05-04T15:53:42.655Z,100765.56
2023-05-04T15:56:09.543Z,100776.56
2023-05-04T15:58:36.402Z,100734.97
2023-05-04T16:01:04.325Z,100766.97
2023-05-04T16:03:31.787Z,100726.00
2023-05-04T16:05:58.789Z,100776.44
2023-05-04T16:08:26.035Z,100774.47
2023-05-04T16:10:53.687Z,100786.38
2023-05-04T16:13:21.087Z,100770.69
2023-05-04T16:15:51.546Z,100752.28
2023-05-04T16:18:21.360Z,100778.13
2023-05-04T16:20:48.266Z,100778.19
2023-05-04T16:23:16.164Z,100772.19
2023-05-04T16:25:43.381Z,100761.81
2023-05-04T16:28:10.402Z,100765.81
2023-05-04T16:30:37.366Z,100758.00
2023-05-04T16:33:04.336Z,100782.00
2023-05-04T16:35:31.929Z,100774.47
2023-05-04T16:37:59.037Z,100716.91
2023-05-04T16:40:26.021Z,100767.03
2023-05-04T16:42:52.849Z,100768.41
2023-05-04T16:45:20.703Z,100723.72
2023-05-04T16:47:47.696Z,100744.59
2023-05-04T16:50:14.689Z,100697.03
2023-05-04T16:52:41.651Z,100761.78
2023-05-04T16:55:12.208Z,100773.13
2023-05-04T16:57:39.633Z,100766.13
2023-05-04T17:00:07.562Z,100760.66
2023-05-04T17:02:35.502Z,100756.84
2023-05-04T17:05:04.717Z,100740.88
2023-05-04T17:07:31.668Z,100770.84
2023-05-04T17:09:58.465Z,100776.25
2023-05-04T17:12:25.320Z,100783.09
2023-05-04T17:14:52.139Z,100734.97
2023-05-04T17:17:18.906Z,100771.31
2023-05-04T17:19:46.652Z,100762.34
2023-05-04T17:22:13.478Z,100774.94
2023-05-04T17:24:40.301Z,100780.53
2023-05-04T17:27:07.104Z,100781.56
2023-05-04T17:29:33.958Z,100775.91
2023-05-04T17:32:00.811Z,100742.88
2023-05-04T17:34:27.694Z,100782.25
2023-05-04T17:36:54.571Z,100732.53
2023-05-04T17:39:21.416Z,100781.28
2023-05-04T17:41:48.922Z,100780.31
2023-05-04T17:44:16.752Z,100786.69
2023-05-04T17:46:43.661Z,100774.66
2023-05-04T17:49:10.572Z,100775.94
2023-05-04T17:51:37.622Z,100737.88
2023-05-04T17:54:04.560Z,100785.38
2023-05-04T17:56:31.306Z,100769.81
2023-05-04T17:58:58.171Z,100768.84
2023-05-04T18:01:24.954Z,100769.53
2023-05-04T18:03:51.864Z,100775.34
2023-05-04T18:06:19.089Z,100771.88
2023-05-04T18:08:46.049Z,100770.06
2023-05-04T18:11:12.949Z,100771.72
2023-05-04T18:13:39.950Z,100775.41
2023-05-04T18:16:06.866Z,100748.47
2023-05-04T18:18:33.733Z,100727.69
2023-05-04T18:21:01.052Z,100770.63
2023-05-04T18:23:28.123Z,100776.66
2023-05-04T18:25:55.058Z,100768.19
2023-05-04T18:28:21.881Z,100680.44
2023-05-04T18:30:49.894Z,100768.63
2023-05-04T18:33:16.672Z,100775.97
2023-05-04T18:35:43.541Z,100774.50
2023-05-04T18:38:10.707Z,100773.19
2023-05-04T18:40:37.482Z,100785.69
2023-05-04T18:43:04.313Z,100763.91
2023-05-04T18:45:31.583Z,100790.06
2023-05-04T18:47:58.483Z,100788.75
2023-05-04T18:50:25.690Z,100788.59
2023-05-04T18:52:54.213Z,100788.75
2023-05-04T18:55:21.096Z,100793.28
2023-05-04T18:57:48.000Z,100786.78
2023-05-04T19:00:15.198Z,100792.78
2023-05-04T19:02:41.973Z,100801.97
2023-05-04T19:05:09.266Z,100799.31
2023-05-04T19:07:36.200Z,100801.66
2023-05-04T19:10:04.166Z,100805.66
2023-05-04T19:12:31.173Z,100808.81
2023-05-04T19:14:58.152Z,100819.34
2023-05-04T19:17:25.038Z,100807.88
2023-05-04T19:19:52.028Z,100819.84
2023-05-04T19:22:18.773Z,100820.53
2023-05-04T19:24:49.362Z,100817.53
2023-05-04T19:27:16.205Z,100815.38
2023-05-04T19:29:42.933Z,100782.22
2023-05-04T19:32:22.762Z,100798.41
2023-05-04T19:34:50.930Z,100804.38
2023-05-04T19:37:17.767Z,100819.06
2023-05-04T19:39:44.517Z,100797.41
2023-05-04T19:42:11.916Z,100820.91
2023-05-04T19:44:38.633Z,100822.25
2023-05-04T19:47:05.411Z,100806.91
2023-05-04T19:49:33.660Z,100815.25
2023-05-04T19:52:01.082Z,100762.13
2023-05-04T19:54:27.930Z,100815.25
2023-05-04T19:56:54.782Z,100828.59
2023-05-04T19:59:21.601Z,100830.59
2023-05-04T20:01:48.482Z,100821.59
2023-05-04T20:04:15.533Z,100830.09
2023-05-04T20:06:42.280Z,100801.75
2023-05-04T20:09:09.037Z,100823.28
2023-05-04T20:11:36.479Z,100729.16
2023-05-04T20:14:03.191Z,100811.06
2023-05-04T20:16:30.083Z,100770.25
2023-05-04T20:18:57.148Z,100781.44
2023-05-04T20:21:23.965Z,100815.59
2023-05-04T20:23:50.695Z,100805.06
2023-05-04T20:26:17.635Z,100823.56
2023-05-04T20:28:44.454Z,100775.28
2023-05-04T20:31:12.288Z,100802.25
2023-05-04T20:33:39.392Z,100827.56
2023-05-04T20:36:07.220Z,100737.81
2023-05-04T20:38:34.328Z,100800.94
2023-05-04T20:41:07.997Z,100845.22
2023-05-04T20:43:37.939Z,100751.66
2023-05-04T20:46:04.758Z,100850.38
2023-05-04T20:48:32.134Z,100835.09
2023-05-04T20:51:12.881Z,100839.38
2023-05-04T20:53:41.432Z,100855.72
2023-05-04T20:56:10.164Z,100792.94
2023-05-04T20:58:38.531Z,100857.91
2023-05-04T21:01:05.792Z,100798.75
2023-05-04T21:03:33.107Z,100821.06
2023-05-04T21:05:59.982Z,100852.75
2023-05-04T21:08:26.991Z,100831.22
2023-05-04T21:10:53.743Z,100801.25
2023-05-04T21:13:20.589Z,100742.75
2023-05-04T21:15:47.512Z,100829.91
2023-05-04T21:18:14.415Z,100828.72
2023-05-04T21:20:41.605Z,100848.06
2023-05-04T21:23:08.446Z,100858.38
2023-05-04T21:25:35.736Z,100837.22
2023-05-04T21:28:02.608Z,100865.22
2023-05-04T21:30:29.573Z,100837.72
2023-05-04T21:32:56.341Z,100862.22
2023-05-04T21:35:23.583Z,100852.56
2023-05-04T21:37:50.509Z,100852.22
2023-05-04T21:40:17.355Z,100850.38
2023-05-04T21:42:44.149Z,100862.69
2023-05-04T21:45:11.534Z,100822.06
2023-05-04T21:47:38.358Z,100750.25
2023-05-04T21:50:06.142Z,100820.41
2023-05-04T21:52:33.310Z,100843.06
2023-05-04T21:55:00.114Z,100848.03
2023-05-04T21:57:27.704Z,100859.38
2023-05-04T21:59:54.558Z,100855.22
2023-05-04T22:02:21.311Z,100851.72
2023-05-04T22:04:48.280Z,100855.88
2023-05-04T22:07:15.833Z,100856.22
2023-05-04T22:09:42.732Z,100837.03
2023-05-04T22:12:09.577Z,100819.53
2023-05-04T22:14:36.527Z,100843.03
2023-05-04T22:17:03.421Z,100785.34
2023-05-04T22:19:30.617Z,100860.53
2023-05-04T22:21:57.465Z,100843.88
2023-05-04T22:24:26.348Z,100860.03
2023-05-04T22:26:53.137Z,100851.84
2023-05-04T22:29:19.931Z,100846.34
2023-05-04T22:31:46.684Z,100861.03
2023-05-04T22:34:13.413Z,100842.84
2023-05-04T22:36:40.397Z,100860.84
2023-05-04T22:39:07.182Z,100856.34
2023-05-04T22:41:34.011Z,100838.84
2023-05-04T22:44:00.844Z,100857.81
2023-05-04T22:46:27.635Z,100822.34
2023-05-04T22:48:54.371Z,100856.50
2023-05-04T22:51:21.262Z,100853.16
2023-05-04T22:53:48.021Z,100854.31
2023-05-04T22:56:14.755Z,100823.63
2023-05-04T22:58:42.140Z,100792.63
2023-05-04T23:01:10.524Z,100703.59
2023-05-04T23:03:38.286Z,100842.84
2023-05-04T23:06:05.408Z,100824.16
2023-05-04T23:08:32.174Z,100817.47
2023-05-04T23:10:58.881Z,100801.13
2023-05-04T23:13:26.520Z,100808.63
2023-05-04T23:15:53.566Z,100806.94
2023-05-04T23:18:22.921Z,100790.28
2023-05-04T23:20:49.810Z,100833.78
2023-05-04T23:23:16.824Z,100837.28
2023-05-04T23:25:43.861Z,100823.28
2023-05-04T23:28:10.649Z,100787.44
2023-05-04T23:30:37.412Z,100788.94
2023-05-04T23:33:04.362Z,100828.44
2023-05-04T23:35:31.411Z,100830.09
2023-05-04T23:37:58.233Z,100804.41
2023-05-04T23:40:25.031Z,100835.25
2023-05-04T23:42:51.881Z,100831.91
2023-05-04T23:45:18.746Z,100817.25
2023-05-04T23:47:45.758Z,100790.22
2023-05-04T23:50:12.762Z,100825.25
2023-05-04T23:52:39.657Z,100832.56
2023-05-04T23:55:06.798Z,100830.91
2023-05-04T23:57:33.749Z,100828.41
